Historyczne dane pomiarowe

Dodano dane terminowe – wersja testowa.

Dane z okresu 1951-2018

Wersja bazy: 1.27 [2018-11-28, lista zmian], aktualizacja planowana na 2018-12-07

Dane meteo z obszaru Polski uzyskane na podstawie danych udostępnionych przez Instytut Meteorologii i Gospodarki Wodnej – Państwowy Instytut Badawczy.

 

Wybierz Datę:    

       

TemperaturaWilgotnośćWiatrCiśnienieOpadyŚniegCzas trwania zjawisk
 Stacja t tx tn tng RH VA  wxwx mslp ppp RRR   cm mm wxwxwxwxwxwxwx
2015-11-08 12.0 16.2 8.0 3.7 72.8- 2.0 3.3---- 0.0------------
2015-11-09 11.2 16.3 5.0 0.9 80.8- 7.3 2.3---- 4.0------------
2015-11-10 14.2 16.0 12.3 11.0 76.3- 8.0 4.0---- 0.1------------
2015-11-11 14.5 15.5 13.6 12.5 90.3- 8.0 2.3---- 0.2------------
2015-11-12 11.2 14.6 9.2 6.0 76.0- 5.7 2.3---- 0.0------------
2015-11-13 8.3 13.9 3.0 0.1 84.8- 6.7 1.7---- 2.0------------
2015-11-14 8.2 12.2 6.3 2.9 70.8- 6.0 3.0---- 1.2------------
2015-11-15 9.0 12.6 5.0 3.5 96.5- 8.0 2.3---- 18.3------------
2015-11-16 9.1 12.6 6.6 5.7 96.0- 8.0 1.3---- 4.1------------
2015-11-17 10.9 12.8 8.2 4.5 90.0- 8.0 2.3---- 1.0------------
2015-11-18 11.8 14.7 8.9 6.0 82.3- 6.3 3.3---- 2.0------------
2015-11-19 11.2 14.4 7.3 3.0 68.5- 5.3 2.7---- 1.6------------
2015-11-20 6.9 11.6 4.4 1.5 86.0- 7.3 2.0---- 2.3------------
2015-11-21 3.6 7.1 1.1 -2.8 89.8- 5.7 1.0---- 0.0------------
2015-11-22 0.0 3.3 -1.8 -3.9 94.8- 6.0 1.3---- 0.0------------
2015-11-23 -1.2 1.8 -4.1 -7.5 95.3- 7.7 0.7---- 1.2------------
2015-11-24 -0.4 4.2 -2.9 -6.5 86.8- 1.7 1.3---- 0.0------------
2015-11-25 1.2 7.2 -2.7 -7.0 86.5- 8.0 1.7---- 0.0------------
2015-11-26 2.6 5.3 1.2 -2.4 93.0- 7.3 0.7---- 0.0------------
2015-11-27 2.7 5.2 -0.2 -3.9 88.3- 7.3 1.3---- 0.0------------
2015-11-28 0.5 4.7 -2.8 -6.0 85.3- 6.7 2.0---- 0.8------------
2015-11-29 3.4 5.2 0.4 -3.4 83.8- 5.7 2.3---- 6.8------------
2015-11-30 6.0 8.1 3.1 1.4 69.0- 5.7 2.7---- 10.2------------
2015-12-01 5.3 8.8 2.5 1.0 83.0- 7.3 3.0---- 2.2------------
2015-12-02 7.0 10.6 3.4 1.6 93.0- 8.0 1.7---- 1.5------------
2015-12-03 6.0 10.9 2.5 -0.7 83.0- 5.7 1.0---- 0.0------------
2015-12-04 5.2 10.7 0.4 -1.8 84.0- 6.3 1.7---- 0.0------------
2015-12-05 6.2 10.2 2.3 -1.7 74.8- 4.3 2.7---- 0.0------------
2015-12-06 9.3 12.1 6.8 1.7 65.8- 5.3 2.7---- 0.0------------
2015-12-07 9.5 11.7 8.4 4.5 91.3- 7.3 0.7---- 0.0------------
2100.3 ms

 

Źródłem pochodzenia danych jest Instytut Meteorologii i Gospodarki Wodnej – Państwowy Instytut Badawczy. Dane Instytutu Meteorologii i Gospodarki Wodnej – Państwowego Instytutu Badawczego zostały przetworzone.

Dane źródłowe można odnaleźć na stronie https://dane.imgw.pl